sensor_id;sensor_type;location;lat;lon;timestamp;P1;durP1;ratioP1;P2;durP2;ratioP2
6757;SDS011;3416;53.074;8.822;2023-05-15T00:00:27;11.35;;;9.02;;
6757;SDS011;3416;53.074;8.822;2023-05-15T00:02:55;8.40;;;7.60;;
6757;SDS011;3416;53.074;8.822;2023-05-15T00:05:23;9.65;;;8.75;;
6757;SDS011;3416;53.074;8.822;2023-05-15T00:07:50;8.70;;;7.85;;
6757;SDS011;3416;53.074;8.822;2023-05-15T00:10:17;10.00;;;8.60;;
6757;SDS011;3416;53.074;8.822;2023-05-15T00:12:44;8.70;;;7.70;;
6757;SDS011;3416;53.074;8.822;2023-05-15T00:15:11;9.35;;;8.55;;
6757;SDS011;3416;53.074;8.822;2023-05-15T00:17:37;9.82;;;8.40;;
6757;SDS011;3416;53.074;8.822;2023-05-15T00:20:07;9.07;;;8.23;;
6757;SDS011;3416;53.074;8.822;2023-05-15T00:22:35;9.50;;;8.55;;
6757;SDS011;3416;53.074;8.822;2023-05-15T00:25:01;10.10;;;9.20;;
6757;SDS011;3416;53.074;8.822;2023-05-15T00:27:29;10.30;;;8.68;;
6757;SDS011;3416;53.074;8.822;2023-05-15T00:29:55;13.18;;;9.82;;
6757;SDS011;3416;53.074;8.822;2023-05-15T00:32:22;9.95;;;9.05;;
6757;SDS011;3416;53.074;8.822;2023-05-15T00:34:49;10.40;;;9.40;;
6757;SDS011;3416;53.074;8.822;2023-05-15T00:37:17;12.52;;;8.90;;
6757;SDS011;3416;53.074;8.822;2023-05-15T00:39:44;10.70;;;8.88;;
6757;SDS011;3416;53.074;8.822;2023-05-15T00:42:11;9.57;;;8.73;;
6757;SDS011;3416;53.074;8.822;2023-05-15T00:44:40;10.07;;;9.07;;
6757;SDS011;3416;53.074;8.822;2023-05-15T00:47:09;9.52;;;8.68;;
6757;SDS011;3416;53.074;8.822;2023-05-15T00:49:37;12.20;;;10.68;;
6757;SDS011;3416;53.074;8.822;2023-05-15T00:52:05;10.65;;;9.70;;
6757;SDS011;3416;53.074;8.822;2023-05-15T00:54:34;12.55;;;9.85;;
6757;SDS011;3416;53.074;8.822;2023-05-15T00:57:01;11.68;;;10.57;;
6757;SDS011;3416;53.074;8.822;2023-05-15T00:59:30;10.48;;;9.38;;
6757;SDS011;3416;53.074;8.822;2023-05-15T01:01:58;13.00;;;9.75;;
6757;SDS011;3416;53.074;8.822;2023-05-15T01:04:25;10.45;;;9.55;;
6757;SDS011;3416;53.074;8.822;2023-05-15T01:06:52;10.88;;;9.88;;
6757;SDS011;3416;53.074;8.822;2023-05-15T01:09:19;11.35;;;10.30;;
6757;SDS011;3416;53.074;8.822;2023-05-15T01:11:52;12.20;;;9.82;;
6757;SDS011;3416;53.074;8.822;2023-05-15T01:14:19;12.52;;;11.43;;
6757;SDS011;3416;53.074;8.822;2023-05-15T01:16:46;12.10;;;10.82;;
6757;SDS011;3416;53.074;8.822;2023-05-15T01:19:13;10.43;;;9.48;;
6757;SDS011;3416;53.074;8.822;2023-05-15T01:21:56;13.40;;;12.00;;
6757;SDS011;3416;53.074;8.822;2023-05-15T01:27:59;10.00;;;9.10;;
6757;SDS011;3416;53.074;8.822;2023-05-15T01:30:31;12.00;;;10.90;;
6757;SDS011;3416;53.074;8.822;2023-05-15T01:33:02;12.20;;;10.95;;
6757;SDS011;3416;53.074;8.822;2023-05-15T01:35:32;11.23;;;10.20;;
6757;SDS011;3416;53.074;8.822;2023-05-15T01:40:54;12.13;;;10.95;;
6757;SDS011;3416;53.074;8.822;2023-05-15T01:43:27;11.65;;;10.55;;
6757;SDS011;3416;53.074;8.822;2023-05-15T01:45:56;12.90;;;11.52;;
6757;SDS011;3416;53.074;8.822;2023-05-15T01:48:24;11.82;;;10.75;;
6757;SDS011;3416;53.074;8.822;2023-05-15T01:50:53;13.10;;;11.70;;
6757;SDS011;3416;53.074;8.822;2023-05-15T01:53:24;12.80;;;10.88;;
6757;SDS011;3416;53.074;8.822;2023-05-15T01:55:52;12.75;;;11.50;;
6757;SDS011;3416;53.074;8.822;2023-05-15T01:58:20;11.32;;;10.23;;
6757;SDS011;3416;53.074;8.822;2023-05-15T02:00:49;14.30;;;13.00;;
6757;SDS011;3416;53.074;8.822;2023-05-15T02:03:18;13.15;;;11.95;;
6757;SDS011;3416;53.074;8.822;2023-05-15T02:05:45;13.80;;;11.02;;
6757;SDS011;3416;53.074;8.822;2023-05-15T02:08:13;13.30;;;11.90;;
6757;SDS011;3416;53.074;8.822;2023-05-15T02:10:40;14.10;;;12.50;;
6757;SDS011;3416;53.074;8.822;2023-05-15T02:13:08;14.18;;;12.63;;
6757;SDS011;3416;53.074;8.822;2023-05-15T02:15:37;12.00;;;10.90;;
6757;SDS011;3416;53.074;8.822;2023-05-15T02:18:05;13.05;;;11.75;;
6757;SDS011;3416;53.074;8.822;2023-05-15T02:20:32;14.63;;;13.05;;
6757;SDS011;3416;53.074;8.822;2023-05-15T02:23:00;14.05;;;12.73;;
6757;SDS011;3416;53.074;8.822;2023-05-15T02:25:30;13.27;;;11.98;;
6757;SDS011;3416;53.074;8.822;2023-05-15T02:28:02;15.40;;;13.18;;
6757;SDS011;3416;53.074;8.822;2023-05-15T02:30:37;13.60;;;12.15;;
6757;SDS011;3416;53.074;8.822;2023-05-15T02:33:13;14.00;;;12.55;;
6757;SDS011;3416;53.074;8.822;2023-05-15T02:35:50;14.57;;;13.13;;
6757;SDS011;3416;53.074;8.822;2023-05-15T02:38:23;13.80;;;12.40;;
6757;SDS011;3416;53.074;8.822;2023-05-15T02:40:55;15.57;;;12.85;;
6757;SDS011;3416;53.074;8.822;2023-05-15T02:43:24;17.73;;;12.18;;
6757;SDS011;3416;53.074;8.822;2023-05-15T02:45:52;13.98;;;12.77;;
6757;SDS011;3416;53.074;8.822;2023-05-15T02:48:22;12.75;;;11.52;;
6757;SDS011;3416;53.074;8.822;2023-05-15T02:50:50;14.63;;;13.13;;
6757;SDS011;3416;53.074;8.822;2023-05-15T02:53:18;14.23;;;12.85;;
6757;SDS011;3416;53.074;8.822;2023-05-15T02:55:45;16.42;;;14.93;;
6757;SDS011;3416;53.074;8.822;2023-05-15T02:58:12;16.77;;;15.15;;
6757;SDS011;3416;53.074;8.822;2023-05-15T03:00:39;14.40;;;13.10;;
6757;SDS011;3416;53.074;8.822;2023-05-15T03:03:07;16.67;;;14.98;;
6757;SDS011;3416;53.074;8.822;2023-05-15T03:05:35;15.93;;;14.18;;
6757;SDS011;3416;53.074;8.822;2023-05-15T03:08:03;14.63;;;13.07;;
6757;SDS011;3416;53.074;8.822;2023-05-15T03:10:30;17.00;;;15.32;;
6757;SDS011;3416;53.074;8.822;2023-05-15T03:12:57;15.65;;;14.05;;
6757;SDS011;3416;53.074;8.822;2023-05-15T03:15:24;15.40;;;13.60;;
6757;SDS011;3416;53.074;8.822;2023-05-15T03:17:51;15.18;;;13.68;;
6757;SDS011;3416;53.074;8.822;2023-05-15T03:20:18;15.30;;;13.90;;
6757;SDS011;3416;53.074;8.822;2023-05-15T03:22:46;19.23;;;15.10;;
6757;SDS011;3416;53.074;8.822;2023-05-15T03:25:13;18.92;;;16.42;;
6757;SDS011;3416;53.074;8.822;2023-05-15T03:27:41;17.58;;;14.43;;
6757;SDS011;3416;53.074;8.822;2023-05-15T03:30:08;17.10;;;15.57;;
6757;SDS011;3416;53.074;8.822;2023-05-15T03:32:35;19.38;;;17.30;;
6757;SDS011;3416;53.074;8.822;2023-05-15T03:35:02;18.23;;;16.48;;
6757;SDS011;3416;53.074;8.822;2023-05-15T03:37:29;18.55;;;16.73;;
6757;SDS011;3416;53.074;8.822;2023-05-15T03:39:58;18.17;;;13.90;;
6757;SDS011;3416;53.074;8.822;2023-05-15T03:42:24;17.95;;;15.05;;
6757;SDS011;3416;53.074;8.822;2023-05-15T03:44:52;16.02;;;14.43;;
6757;SDS011;3416;53.074;8.822;2023-05-15T03:47:20;18.60;;;15.68;;
6757;SDS011;3416;53.074;8.822;2023-05-15T03:49:47;19.63;;;16.70;;
6757;SDS011;3416;53.074;8.822;2023-05-15T03:52:14;18.73;;;16.80;;
6757;SDS011;3416;53.074;8.822;2023-05-15T03:54:41;18.63;;;16.63;;
6757;SDS011;3416;53.074;8.822;2023-05-15T03:57:09;19.90;;;17.77;;
6757;SDS011;3416;53.074;8.822;2023-05-15T03:59:36;19.13;;;17.38;;
6757;SDS011;3416;53.074;8.822;2023-05-15T04:02:03;20.52;;;18.10;;
6757;SDS011;3416;53.074;8.822;2023-05-15T04:04:30;20.33;;;18.13;;
6757;SDS011;3416;53.074;8.822;2023-05-15T04:06:57;19.63;;;17.80;;
6757;SDS011;3416;53.074;8.822;2023-05-15T04:09:24;26.30;;;19.33;;
6757;SDS011;3416;53.074;8.822;2023-05-15T04:11:51;28.65;;;22.42;;
6757;SDS011;3416;53.074;8.822;2023-05-15T04:14:19;26.13;;;21.83;;
6757;SDS011;3416;53.074;8.822;2023-05-15T04:16:46;25.65;;;22.90;;
6757;SDS011;3416;53.074;8.822;2023-05-15T04:19:14;26.38;;;23.77;;
6757;SDS011;3416;53.074;8.822;2023-05-15T04:21:41;29.58;;;26.58;;
6757;SDS011;3416;53.074;8.822;2023-05-15T04:24:08;30.52;;;27.23;;
6757;SDS011;3416;53.074;8.822;2023-05-15T04:26:35;31.02;;;27.73;;
6757;SDS011;3416;53.074;8.822;2023-05-15T04:29:02;34.83;;;30.33;;
6757;SDS011;3416;53.074;8.822;2023-05-15T04:31:30;34.92;;;28.42;;
6757;SDS011;3416;53.074;8.822;2023-05-15T04:33:57;38.67;;;29.33;;
6757;SDS011;3416;53.074;8.822;2023-05-15T04:36:24;33.42;;;26.42;;
6757;SDS011;3416;53.074;8.822;2023-05-15T04:38:51;34.95;;;27.45;;
6757;SDS011;3416;53.074;8.822;2023-05-15T04:41:17;29.10;;;25.90;;
6757;SDS011;3416;53.074;8.822;2023-05-15T04:43:44;30.13;;;26.20;;
6757;SDS011;3416;53.074;8.822;2023-05-15T04:46:11;37.07;;;26.07;;
6757;SDS011;3416;53.074;8.822;2023-05-15T04:48:40;32.67;;;28.23;;
6757;SDS011;3416;53.074;8.822;2023-05-15T04:51:07;31.43;;;27.63;;
6757;SDS011;3416;53.074;8.822;2023-05-15T04:53:33;28.70;;;25.70;;
6757;SDS011;3416;53.074;8.822;2023-05-15T04:56:00;32.50;;;26.47;;
6757;SDS011;3416;53.074;8.822;2023-05-15T04:58:27;33.13;;;27.53;;
6757;SDS011;3416;53.074;8.822;2023-05-15T05:00:55;35.73;;;26.20;;
6757;SDS011;3416;53.074;8.822;2023-05-15T05:03:22;31.27;;;27.77;;
6757;SDS011;3416;53.074;8.822;2023-05-15T05:05:52;29.20;;;26.27;;
6757;SDS011;3416;53.074;8.822;2023-05-15T05:08:19;32.43;;;28.93;;
6757;SDS011;3416;53.074;8.822;2023-05-15T05:10:46;29.43;;;26.30;;
6757;SDS011;3416;53.074;8.822;2023-05-15T05:13:13;32.57;;;29.17;;
6757;SDS011;3416;53.074;8.822;2023-05-15T05:15:40;30.60;;;27.47;;
6757;SDS011;3416;53.074;8.822;2023-05-15T05:18:07;31.13;;;28.23;;
6757;SDS011;3416;53.074;8.822;2023-05-15T05:20:34;31.03;;;27.83;;
6757;SDS011;3416;53.074;8.822;2023-05-15T05:23:02;32.07;;;28.40;;
6757;SDS011;3416;53.074;8.822;2023-05-15T05:25:29;32.50;;;29.17;;
6757;SDS011;3416;53.074;8.822;2023-05-15T05:27:56;34.30;;;30.80;;
6757;SDS011;3416;53.074;8.822;2023-05-15T05:30:23;32.87;;;29.10;;
6757;SDS011;3416;53.074;8.822;2023-05-15T05:32:50;29.33;;;26.40;;
6757;SDS011;3416;53.074;8.822;2023-05-15T05:35:17;29.30;;;26.50;;
6757;SDS011;3416;53.074;8.822;2023-05-15T05:37:44;34.03;;;26.90;;
6757;SDS011;3416;53.074;8.822;2023-05-15T05:40:13;30.33;;;27.37;;
6757;SDS011;3416;53.074;8.822;2023-05-15T05:42:41;27.47;;;24.80;;
6757;SDS011;3416;53.074;8.822;2023-05-15T05:45:10;31.97;;;28.77;;
6757;SDS011;3416;53.074;8.822;2023-05-15T05:47:37;30.93;;;27.90;;
6757;SDS011;3416;53.074;8.822;2023-05-15T05:52:34;27.30;;;24.60;;
6757;SDS011;3416;53.074;8.822;2023-05-15T05:55:03;31.80;;;28.67;;
6757;SDS011;3416;53.074;8.822;2023-05-15T05:57:32;28.30;;;25.40;;
6757;SDS011;3416;53.074;8.822;2023-05-15T06:00:00;46.60;;;31.30;;
6757;SDS011;3416;53.074;8.822;2023-05-15T06:02:30;31.57;;;28.43;;
6757;SDS011;3416;53.074;8.822;2023-05-15T06:04:58;35.57;;;30.10;;
6757;SDS011;3416;53.074;8.822;2023-05-15T06:07:25;32.67;;;29.07;;
6757;SDS011;3416;53.074;8.822;2023-05-15T06:09:54;32.97;;;29.57;;
6757;SDS011;3416;53.074;8.822;2023-05-15T06:12:21;26.60;;;24.00;;
6757;SDS011;3416;53.074;8.822;2023-05-15T06:14:50;34.37;;;29.33;;
6757;SDS011;3416;53.074;8.822;2023-05-15T06:17:17;40.23;;;35.37;;
6757;SDS011;3416;53.074;8.822;2023-05-15T06:19:44;38.93;;;31.20;;
6757;SDS011;3416;53.074;8.822;2023-05-15T06:22:11;31.60;;;26.00;;
6757;SDS011;3416;53.074;8.822;2023-05-15T06:24:38;31.20;;;27.03;;
6757;SDS011;3416;53.074;8.822;2023-05-15T06:27:06;30.97;;;27.50;;
6757;SDS011;3416;53.074;8.822;2023-05-15T06:29:33;26.13;;;23.60;;
6757;SDS011;3416;53.074;8.822;2023-05-15T06:32:07;23.50;;;21.27;;
6757;SDS011;3416;53.074;8.822;2023-05-15T06:34:34;24.03;;;21.97;;
6757;SDS011;3416;53.074;8.822;2023-05-15T06:37:02;28.17;;;25.60;;
6757;SDS011;3416;53.074;8.822;2023-05-15T06:39:29;30.27;;;27.00;;
6757;SDS011;3416;53.074;8.822;2023-05-15T06:41:56;28.97;;;26.20;;
6757;SDS011;3416;53.074;8.822;2023-05-15T06:44:25;25.40;;;23.10;;
6757;SDS011;3416;53.074;8.822;2023-05-15T06:46:52;26.43;;;23.93;;
6757;SDS011;3416;53.074;8.822;2023-05-15T06:49:20;27.83;;;25.30;;
6757;SDS011;3416;53.074;8.822;2023-05-15T06:51:47;29.03;;;23.53;;
6757;SDS011;3416;53.074;8.822;2023-05-15T06:54:14;26.80;;;24.40;;
6757;SDS011;3416;53.074;8.822;2023-05-15T06:56:42;29.00;;;26.20;;
6757;SDS011;3416;53.074;8.822;2023-05-15T06:59:09;27.00;;;24.40;;
6757;SDS011;3416;53.074;8.822;2023-05-15T07:01:37;29.10;;;25.93;;
6757;SDS011;3416;53.074;8.822;2023-05-15T07:04:04;26.73;;;24.13;;
6757;SDS011;3416;53.074;8.822;2023-05-15T07:06:32;26.80;;;24.33;;
6757;SDS011;3416;53.074;8.822;2023-05-15T07:09:00;26.30;;;23.60;;
6757;SDS011;3416;53.074;8.822;2023-05-15T07:11:27;26.80;;;23.83;;
6757;SDS011;3416;53.074;8.822;2023-05-15T07:13:54;25.10;;;22.80;;
6757;SDS011;3416;53.074;8.822;2023-05-15T07:16:21;27.53;;;24.63;;
6757;SDS011;3416;53.074;8.822;2023-05-15T07:18:48;26.40;;;23.77;;
6757;SDS011;3416;53.074;8.822;2023-05-15T07:21:15;24.63;;;22.20;;
6757;SDS011;3416;53.074;8.822;2023-05-15T07:23:44;26.10;;;23.30;;
6757;SDS011;3416;53.074;8.822;2023-05-15T07:26:12;23.07;;;21.03;;
6757;SDS011;3416;53.074;8.822;2023-05-15T07:28:39;24.70;;;22.50;;
6757;SDS011;3416;53.074;8.822;2023-05-15T07:31:06;24.77;;;22.57;;
6757;SDS011;3416;53.074;8.822;2023-05-15T07:33:33;24.33;;;22.07;;
6757;SDS011;3416;53.074;8.822;2023-05-15T07:36:00;26.37;;;23.77;;
6757;SDS011;3416;53.074;8.822;2023-05-15T07:38:27;27.57;;;24.97;;
6757;SDS011;3416;53.074;8.822;2023-05-15T07:40:55;26.37;;;23.77;;
6757;SDS011;3416;53.074;8.822;2023-05-15T07:43:22;25.00;;;22.60;;
6757;SDS011;3416;53.074;8.822;2023-05-15T07:45:49;24.30;;;22.00;;
6757;SDS011;3416;53.074;8.822;2023-05-15T07:48:17;25.80;;;23.20;;
6757;SDS011;3416;53.074;8.822;2023-05-15T07:50:45;25.20;;;22.70;;
6757;SDS011;3416;53.074;8.822;2023-05-15T07:53:17;21.83;;;19.63;;
6757;SDS011;3416;53.074;8.822;2023-05-15T07:55:43;22.50;;;20.30;;
6757;SDS011;3416;53.074;8.822;2023-05-15T07:58:12;26.30;;;23.47;;
6757;SDS011;3416;53.074;8.822;2023-05-15T08:00:41;26.20;;;23.53;;
6757;SDS011;3416;53.074;8.822;2023-05-15T08:03:09;25.47;;;21.33;;
6757;SDS011;3416;53.074;8.822;2023-05-15T08:05:36;23.27;;;21.03;;
6757;SDS011;3416;53.074;8.822;2023-05-15T08:08:03;23.30;;;20.90;;
6757;SDS011;3416;53.074;8.822;2023-05-15T08:10:31;24.63;;;21.97;;
6757;SDS011;3416;53.074;8.822;2023-05-15T08:12:57;23.23;;;20.93;;
6757;SDS011;3416;53.074;8.822;2023-05-15T08:15:26;23.13;;;20.63;;
6757;SDS011;3416;53.074;8.822;2023-05-15T08:17:54;27.93;;;22.63;;
6757;SDS011;3416;53.074;8.822;2023-05-15T08:20:21;22.90;;;20.50;;
6757;SDS011;3416;53.074;8.822;2023-05-15T08:22:48;23.47;;;21.20;;
6757;SDS011;3416;53.074;8.822;2023-05-15T08:25:15;22.80;;;20.60;;
6757;SDS011;3416;53.074;8.822;2023-05-15T08:27:42;21.60;;;19.50;;
6757;SDS011;3416;53.074;8.822;2023-05-15T08:30:09;23.23;;;20.23;;
6757;SDS011;3416;53.074;8.822;2023-05-15T08:32:39;21.57;;;19.37;;
6757;SDS011;3416;53.074;8.822;2023-05-15T08:35:07;19.40;;;17.40;;
6757;SDS011;3416;53.074;8.822;2023-05-15T08:37:34;20.70;;;18.17;;
6757;SDS011;3416;53.074;8.822;2023-05-15T08:40:01;16.67;;;15.10;;
6757;SDS011;3416;53.074;8.822;2023-05-15T08:42:33;21.10;;;19.00;;
6757;SDS011;3416;53.074;8.822;2023-05-15T08:45:05;21.10;;;19.00;;
6757;SDS011;3416;53.074;8.822;2023-05-15T08:47:34;26.93;;;18.33;;
6757;SDS011;3416;53.074;8.822;2023-05-15T08:50:06;18.90;;;17.00;;
6757;SDS011;3416;53.074;8.822;2023-05-15T08:52:37;17.60;;;15.90;;
6757;SDS011;3416;53.074;8.822;2023-05-15T08:55:07;18.63;;;16.00;;
6757;SDS011;3416;53.074;8.822;2023-05-15T08:57:34;15.97;;;14.37;;
6757;SDS011;3416;53.074;8.822;2023-05-15T09:00:02;15.07;;;13.50;;
6757;SDS011;3416;53.074;8.822;2023-05-15T09:02:32;16.33;;;14.73;;
6757;SDS011;3416;53.074;8.822;2023-05-15T09:05:01;15.40;;;13.90;;
6757;SDS011;3416;53.074;8.822;2023-05-15T09:07:28;15.80;;;14.20;;
6757;SDS011;3416;53.074;8.822;2023-05-15T09:09:55;14.63;;;13.43;;
6757;SDS011;3416;53.074;8.822;2023-05-15T09:12:23;13.17;;;12.00;;
6757;SDS011;3416;53.074;8.822;2023-05-15T09:14:50;15.30;;;13.90;;
6757;SDS011;3416;53.074;8.822;2023-05-15T09:17:35;14.33;;;12.90;;
6757;SDS011;3416;53.074;8.822;2023-05-15T09:20:04;13.37;;;11.97;;
6757;SDS011;3416;53.074;8.822;2023-05-15T09:22:33;15.00;;;13.37;;
6757;SDS011;3416;53.074;8.822;2023-05-15T09:25:00;14.87;;;13.43;;
6757;SDS011;3416;53.074;8.822;2023-05-15T09:27:28;14.67;;;13.27;;
6757;SDS011;3416;53.074;8.822;2023-05-15T09:30:07;14.90;;;13.07;;
6757;SDS011;3416;53.074;8.822;2023-05-15T09:32:34;14.43;;;13.00;;
6757;SDS011;3416;53.074;8.822;2023-05-15T09:35:04;17.83;;;16.00;;
6757;SDS011;3416;53.074;8.822;2023-05-15T09:37:57;15.97;;;14.37;;
6757;SDS011;3416;53.074;8.822;2023-05-15T09:40:29;15.00;;;12.87;;
6757;SDS011;3416;53.074;8.822;2023-05-15T09:42:58;14.47;;;12.87;;
6757;SDS011;3416;53.074;8.822;2023-05-15T09:45:25;17.53;;;15.97;;
6757;SDS011;3416;53.074;8.822;2023-05-15T09:47:54;15.37;;;12.83;;
6757;SDS011;3416;53.074;8.822;2023-05-15T09:50:23;19.30;;;14.50;;
6757;SDS011;3416;53.074;8.822;2023-05-15T09:52:57;18.23;;;15.43;;
6757;SDS011;3416;53.074;8.822;2023-05-15T09:55:25;18.00;;;14.43;;
6757;SDS011;3416;53.074;8.822;2023-05-15T09:58:05;15.60;;;14.00;;
6757;SDS011;3416;53.074;8.822;2023-05-15T10:00:36;14.63;;;13.17;;
6757;SDS011;3416;53.074;8.822;2023-05-15T10:03:04;17.20;;;15.50;;
6757;SDS011;3416;53.074;8.822;2023-05-15T10:05:34;14.80;;;13.40;;
6757;SDS011;3416;53.074;8.822;2023-05-15T10:08:01;16.40;;;14.23;;
6757;SDS011;3416;53.074;8.822;2023-05-15T10:10:30;15.07;;;13.70;;
6757;SDS011;3416;53.074;8.822;2023-05-15T10:12:57;17.03;;;15.50;;
6757;SDS011;3416;53.074;8.822;2023-05-15T10:15:27;19.20;;;17.17;;
6757;SDS011;3416;53.074;8.822;2023-05-15T10:17:54;18.87;;;16.87;;
6757;SDS011;3416;53.074;8.822;2023-05-15T10:20:22;19.10;;;17.23;;
6757;SDS011;3416;53.074;8.822;2023-05-15T10:22:52;18.67;;;16.90;;
6757;SDS011;3416;53.074;8.822;2023-05-15T10:25:22;19.27;;;17.53;;
6757;SDS011;3416;53.074;8.822;2023-05-15T10:27:58;19.17;;;17.17;;
6757;SDS011;3416;53.074;8.822;2023-05-15T10:30:26;19.07;;;16.87;;
6757;SDS011;3416;53.074;8.822;2023-05-15T10:32:54;30.20;;;19.60;;
6757;SDS011;3416;53.074;8.822;2023-05-15T10:35:21;20.97;;;18.97;;
6757;SDS011;3416;53.074;8.822;2023-05-15T10:37:48;21.93;;;18.70;;
6757;SDS011;3416;53.074;8.822;2023-05-15T10:40:17;22.17;;;19.83;;
6757;SDS011;3416;53.074;8.822;2023-05-15T10:42:45;20.53;;;18.63;;
6757;SDS011;3416;53.074;8.822;2023-05-15T10:45:13;21.20;;;18.10;;
6757;SDS011;3416;53.074;8.822;2023-05-15T10:47:40;22.13;;;19.80;;
6757;SDS011;3416;53.074;8.822;2023-05-15T10:50:09;18.57;;;16.60;;
6757;SDS011;3416;53.074;8.822;2023-05-15T10:52:38;23.03;;;18.47;;
6757;SDS011;3416;53.074;8.822;2023-05-15T10:55:06;20.20;;;15.80;;
6757;SDS011;3416;53.074;8.822;2023-05-15T10:57:35;16.13;;;14.10;;
6757;SDS011;3416;53.074;8.822;2023-05-15T11:00:03;16.37;;;14.63;;
6757;SDS011;3416;53.074;8.822;2023-05-15T11:02:50;15.97;;;14.27;;
6757;SDS011;3416;53.074;8.822;2023-05-15T11:05:21;15.03;;;12.13;;
6757;SDS011;3416;53.074;8.822;2023-05-15T11:10:51;11.70;;;10.53;;
6757;SDS011;3416;53.074;8.822;2023-05-15T11:13:19;13.60;;;12.30;;
6757;SDS011;3416;53.074;8.822;2023-05-15T11:15:46;12.23;;;11.10;;
6757;SDS011;3416;53.074;8.822;2023-05-15T11:18:14;13.40;;;12.00;;
6757;SDS011;3416;53.074;8.822;2023-05-15T11:21:04;16.20;;;11.97;;
6757;SDS011;3416;53.074;8.822;2023-05-15T11:23:36;12.90;;;11.40;;
6757;SDS011;3416;53.074;8.822;2023-05-15T11:26:05;14.93;;;10.67;;
6757;SDS011;3416;53.074;8.822;2023-05-15T11:28:39;14.97;;;12.53;;
6757;SDS011;3416;53.074;8.822;2023-05-15T11:31:07;12.53;;;11.33;;
6757;SDS011;3416;53.074;8.822;2023-05-15T11:33:36;13.03;;;11.53;;
6757;SDS011;3416;53.074;8.822;2023-05-15T11:36:04;15.93;;;13.33;;
6757;SDS011;3416;53.074;8.822;2023-05-15T11:38:36;15.10;;;11.93;;
6757;SDS011;3416;53.074;8.822;2023-05-15T11:41:15;12.97;;;9.40;;
6757;SDS011;3416;53.074;8.822;2023-05-15T11:43:43;11.00;;;8.90;;
6757;SDS011;3416;53.074;8.822;2023-05-15T11:46:11;9.83;;;8.60;;
6757;SDS011;3416;53.074;8.822;2023-05-15T11:48:39;11.20;;;8.53;;
6757;SDS011;3416;53.074;8.822;2023-05-15T11:51:12;9.50;;;8.27;;
6757;SDS011;3416;53.074;8.822;2023-05-15T11:53:43;11.03;;;9.23;;
6757;SDS011;3416;53.074;8.822;2023-05-15T11:56:16;16.67;;;10.67;;
6757;SDS011;3416;53.074;8.822;2023-05-15T11:58:43;7.67;;;6.90;;
6757;SDS011;3416;53.074;8.822;2023-05-15T12:01:13;9.50;;;8.40;;
6757;SDS011;3416;53.074;8.822;2023-05-15T12:03:41;11.10;;;7.40;;
6757;SDS011;3416;53.074;8.822;2023-05-15T12:06:08;8.40;;;7.43;;
6757;SDS011;3416;53.074;8.822;2023-05-15T12:08:36;9.23;;;7.33;;
6757;SDS011;3416;53.074;8.822;2023-05-15T12:11:04;10.70;;;7.50;;
6757;SDS011;3416;53.074;8.822;2023-05-15T12:13:31;8.77;;;7.87;;
6757;SDS011;3416;53.074;8.822;2023-05-15T12:15:59;10.70;;;7.83;;
6757;SDS011;3416;53.074;8.822;2023-05-15T12:18:28;9.10;;;7.10;;
6757;SDS011;3416;53.074;8.822;2023-05-15T12:20:55;9.57;;;8.60;;
6757;SDS011;3416;53.074;8.822;2023-05-15T12:23:23;14.67;;;10.07;;
6757;SDS011;3416;53.074;8.822;2023-05-15T12:25:53;11.77;;;10.67;;
6757;SDS011;3416;53.074;8.822;2023-05-15T12:28:24;8.77;;;7.87;;
6757;SDS011;3416;53.074;8.822;2023-05-15T12:30:51;11.40;;;8.80;;
6757;SDS011;3416;53.074;8.822;2023-05-15T12:33:19;12.57;;;9.60;;
6757;SDS011;3416;53.074;8.822;2023-05-15T12:35:49;16.37;;;11.97;;
6757;SDS011;3416;53.074;8.822;2023-05-15T12:38:20;14.10;;;9.20;;
6757;SDS011;3416;53.074;8.822;2023-05-15T12:40:50;12.10;;;9.13;;
6757;SDS011;3416;53.074;8.822;2023-05-15T12:43:19;11.13;;;8.90;;
6757;SDS011;3416;53.074;8.822;2023-05-15T12:45:51;12.27;;;8.93;;
6757;SDS011;3416;53.074;8.822;2023-05-15T12:48:19;11.60;;;8.53;;
6757;SDS011;3416;53.074;8.822;2023-05-15T12:50:47;13.60;;;9.47;;
6757;SDS011;3416;53.074;8.822;2023-05-15T12:53:15;13.83;;;10.03;;
6757;SDS011;3416;53.074;8.822;2023-05-15T12:55:43;12.30;;;9.30;;
6757;SDS011;3416;53.074;8.822;2023-05-15T12:58:12;8.80;;;8.00;;
6757;SDS011;3416;53.074;8.822;2023-05-15T13:00:42;10.27;;;9.27;;
6757;SDS011;3416;53.074;8.822;2023-05-15T13:03:13;13.33;;;8.37;;
6757;SDS011;3416;53.074;8.822;2023-05-15T13:05:41;12.93;;;9.27;;
6757;SDS011;3416;53.074;8.822;2023-05-15T13:08:12;10.27;;;8.13;;
6757;SDS011;3416;53.074;8.822;2023-05-15T13:10:41;10.43;;;8.90;;
6757;SDS011;3416;53.074;8.822;2023-05-15T13:13:08;10.80;;;9.53;;
6757;SDS011;3416;53.074;8.822;2023-05-15T13:15:36;11.80;;;8.20;;
6757;SDS011;3416;53.074;8.822;2023-05-15T13:18:06;9.60;;;8.67;;
6757;SDS011;3416;53.074;8.822;2023-05-15T13:20:36;7.77;;;7.00;;
6757;SDS011;3416;53.074;8.822;2023-05-15T13:23:04;10.00;;;8.23;;
6757;SDS011;3416;53.074;8.822;2023-05-15T13:25:31;7.97;;;6.90;;
6757;SDS011;3416;53.074;8.822;2023-05-15T13:27:59;16.33;;;8.27;;
6757;SDS011;3416;53.074;8.822;2023-05-15T13:30:27;15.80;;;8.33;;
6757;SDS011;3416;53.074;8.822;2023-05-15T13:32:54;9.83;;;8.13;;
6757;SDS011;3416;53.074;8.822;2023-05-15T13:35:22;11.37;;;10.37;;
6757;SDS011;3416;53.074;8.822;2023-05-15T13:37:51;14.40;;;10.40;;
6757;SDS011;3416;53.074;8.822;2023-05-15T13:40:21;10.80;;;9.80;;
6757;SDS011;3416;53.074;8.822;2023-05-15T13:42:48;11.97;;;10.77;;
6757;SDS011;3416;53.074;8.822;2023-05-15T13:45:15;11.33;;;10.13;;
6757;SDS011;3416;53.074;8.822;2023-05-15T13:47:42;9.70;;;8.70;;
6757;SDS011;3416;53.074;8.822;2023-05-15T13:50:15;12.97;;;9.50;;
6757;SDS011;3416;53.074;8.822;2023-05-15T13:52:43;9.63;;;8.80;;
6757;SDS011;3416;53.074;8.822;2023-05-15T13:55:13;9.43;;;8.37;;
6757;SDS011;3416;53.074;8.822;2023-05-15T13:57:40;8.47;;;7.77;;
6757;SDS011;3416;53.074;8.822;2023-05-15T14:00:08;8.40;;;7.50;;
6757;SDS011;3416;53.074;8.822;2023-05-15T14:02:37;8.50;;;7.63;;
6757;SDS011;3416;53.074;8.822;2023-05-15T14:05:06;13.80;;;7.40;;
6757;SDS011;3416;53.074;8.822;2023-05-15T14:07:34;13.00;;;7.77;;
6757;SDS011;3416;53.074;8.822;2023-05-15T14:10:02;10.50;;;8.90;;
6757;SDS011;3416;53.074;8.822;2023-05-15T14:12:30;6.60;;;6.00;;
6757;SDS011;3416;53.074;8.822;2023-05-15T14:14:57;6.87;;;6.17;;
6757;SDS011;3416;53.074;8.822;2023-05-15T14:17:24;7.90;;;6.70;;
6757;SDS011;3416;53.074;8.822;2023-05-15T14:19:52;9.93;;;6.43;;
6757;SDS011;3416;53.074;8.822;2023-05-15T14:22:19;9.87;;;6.93;;
6757;SDS011;3416;53.074;8.822;2023-05-15T14:24:48;11.30;;;7.00;;
6757;SDS011;3416;53.074;8.822;2023-05-15T14:27:15;8.27;;;7.47;;
6757;SDS011;3416;53.074;8.822;2023-05-15T14:29:44;17.73;;;6.73;;
6757;SDS011;3416;53.074;8.822;2023-05-15T14:32:12;9.93;;;6.53;;
6757;SDS011;3416;53.074;8.822;2023-05-15T14:34:40;10.00;;;6.30;;
6757;SDS011;3416;53.074;8.822;2023-05-15T14:37:07;11.90;;;5.83;;
6757;SDS011;3416;53.074;8.822;2023-05-15T14:39:34;7.57;;;6.23;;
6757;SDS011;3416;53.074;8.822;2023-05-15T14:42:01;6.97;;;6.27;;
6757;SDS011;3416;53.074;8.822;2023-05-15T14:44:28;8.83;;;6.97;;
6757;SDS011;3416;53.074;8.822;2023-05-15T14:47:06;11.17;;;7.80;;
6757;SDS011;3416;53.074;8.822;2023-05-15T14:49:34;11.17;;;8.57;;
6757;SDS011;3416;53.074;8.822;2023-05-15T14:52:01;10.20;;;8.30;;
6757;SDS011;3416;53.074;8.822;2023-05-15T14:54:29;13.60;;;9.40;;
6757;SDS011;3416;53.074;8.822;2023-05-15T14:56:56;9.23;;;8.30;;
6757;SDS011;3416;53.074;8.822;2023-05-15T14:59:23;14.17;;;8.33;;
6757;SDS011;3416;53.074;8.822;2023-05-15T15:01:52;12.40;;;8.67;;
6757;SDS011;3416;53.074;8.822;2023-05-15T15:04:24;10.80;;;8.20;;
6757;SDS011;3416;53.074;8.822;2023-05-15T15:06:53;9.67;;;7.13;;
6757;SDS011;3416;53.074;8.822;2023-05-15T15:09:21;8.07;;;7.27;;
6757;SDS011;3416;53.074;8.822;2023-05-15T15:11:48;8.93;;;8.03;;